Time;durP1;ratioP1;P1;durP2;ratioP2;P2;SDS_P1;SDS_P2;PMS_P1;PMS_P2;Temp;Humidity;BMP_temperature;BMP_pressure;BME280_temperature;BME280_humidity;BME280_pressure;Samples;Min_cycle;Max_cycle;Signal;HPM_P1;HPM_P2
2023/12/15 00:01:48;;;;;;;7.20;4.93;;;4.00;99.90;;;;;;4193243;28;20048;-60
2023/12/15 00:03:49;;;;;;;9.37;6.03;;;4.00;99.90;;;;;;4194491;28;20323;-61
2023/12/15 00:05:50;;;;;;;8.37;5.70;;;4.00;99.90;;;;;;4193424;28;20399;-60
2023/12/15 00:07:52;;;;;;;8.63;5.70;;;4.00;99.90;;;;;;4193647;28;20262;-58
2023/12/15 00:09:53;;;;;;;9.70;5.80;;;4.00;99.90;;;;;;4192270;28;20110;-61
2023/12/15 00:11:54;;;;;;;8.27;5.30;;;3.90;99.90;;;;;;4193275;28;20373;-61
2023/12/15 00:13:55;;;;;;;8.23;5.43;;;3.90;99.90;;;;;;4193088;28;20299;-61
2023/12/15 00:15:56;;;;;;;7.07;4.87;;;3.90;99.90;;;;;;4193852;28;20407;-61
2023/12/15 00:17:58;;;;;;;8.03;5.50;;;3.90;99.90;;;;;;4192666;28;20045;-60
2023/12/15 00:19:59;;;;;;;8.07;5.50;;;3.90;99.90;;;;;;4192955;28;20610;-59
2023/12/15 00:22:00;;;;;;;8.60;5.57;;;3.80;99.90;;;;;;4193700;28;20262;-58
2023/12/15 00:24:04;;;;;;;7.60;5.23;;;3.80;99.90;;;;;;4192295;28;20265;-60
2023/12/15 00:26:05;;;;;;;8.50;5.53;;;3.70;99.90;;;;;;4193307;28;20277;-60
2023/12/15 00:28:06;;;;;;;8.43;5.63;;;3.70;99.90;;;;;;4192115;28;20032;-60
2023/12/15 00:30:08;;;;;;;8.77;5.60;;;3.70;99.90;;;;;;4194202;28;20024;-61
2023/12/15 00:32:09;;;;;;;7.93;5.20;;;3.70;99.90;;;;;;4192454;28;20266;-61
2023/12/15 00:34:10;;;;;;;8.63;5.37;;;3.70;99.90;;;;;;4193285;28;20048;-61
2023/12/15 00:36:12;;;;;;;9.07;5.53;;;3.60;99.90;;;;;;4174541;28;20324;-61
2023/12/15 00:38:13;;;;;;;8.23;5.47;;;3.60;99.90;;;;;;4193236;28;20331;-62
2023/12/15 00:40:15;;;;;;;9.37;6.07;;;3.60;99.90;;;;;;4192408;28;20282;-61
2023/12/15 00:42:16;;;;;;;10.33;6.53;;;3.60;99.90;;;;;;4174808;28;20118;-61
2023/12/15 00:44:17;;;;;;;10.60;7.40;;;3.60;99.90;;;;;;4192349;28;20078;-61
2023/12/15 00:46:19;;;;;;;8.43;6.10;;;3.60;99.90;;;;;;4192446;28;20270;-61
2023/12/15 00:48:20;;;;;;;8.50;5.60;;;3.60;99.90;;;;;;4193875;28;20273;-61
2023/12/15 00:50:21;;;;;;;6.23;4.57;;;3.60;99.90;;;;;;4191525;28;20327;-61
2023/12/15 00:52:22;;;;;;;7.43;5.43;;;3.60;99.90;;;;;;4193917;28;20258;-60
2023/12/15 00:54:23;;;;;;;6.23;4.80;;;3.60;99.90;;;;;;4192282;28;20720;-60
2023/12/15 00:56:25;;;;;;;9.60;5.90;;;3.50;99.90;;;;;;4193564;28;20331;-59
2023/12/15 00:58:27;;;;;;;7.90;5.73;;;3.50;99.90;;;;;;4192298;28;20094;-60
2023/12/15 01:00:28;;;;;;;9.97;6.17;;;3.50;99.90;;;;;;4193773;28;20293;-60
2023/12/15 01:02:29;;;;;;;10.53;6.43;;;3.50;99.90;;;;;;4191002;28;20293;-62
2023/12/15 01:04:31;;;;;;;9.93;6.63;;;3.50;99.90;;;;;;4191944;28;20109;-60
2023/12/15 01:06:33;;;;;;;12.77;7.47;;;3.40;99.90;;;;;;4191775;28;20281;-60
2023/12/15 01:08:34;;;;;;;9.77;6.73;;;3.40;99.90;;;;;;4194076;28;20613;-62
2023/12/15 01:10:35;;;;;;;11.20;6.63;;;3.40;99.90;;;;;;4173719;28;20317;-60
2023/12/15 01:12:36;;;;;;;9.13;6.57;;;3.40;99.90;;;;;;4175626;28;20270;-60
2023/12/15 01:14:38;;;;;;;7.60;5.43;;;3.40;99.90;;;;;;4191684;28;20713;-60
2023/12/15 01:16:49;;;;;;;6.90;5.07;;;3.40;99.90;;;;;;4192839;28;20047;-61
2023/12/15 01:18:50;;;;;;;;;;;3.40;99.90;;;;;;4191309;28;20277;-60
2023/12/15 01:20:51;;;;;;;9.67;5.90;;;3.30;99.90;;;;;;4192757;28;19916;-61
2023/12/15 01:22:52;;;;;;;9.33;5.53;;;3.30;99.90;;;;;;4193219;28;20257;-61
2023/12/15 01:24:53;;;;;;;9.00;5.77;;;3.30;99.90;;;;;;4189366;28;20338;-60
2023/12/15 01:26:54;;;;;;;8.87;5.67;;;3.30;99.90;;;;;;4193474;28;20265;-60
2023/12/15 01:28:56;;;;;;;8.37;5.20;;;3.30;99.90;;;;;;4192056;28;20319;-59
2023/12/15 01:31:01;;;;;;;7.73;5.47;;;3.30;99.90;;;;;;4192559;28;20297;-60
2023/12/15 01:33:02;;;;;;;10.30;5.47;;;3.30;99.90;;;;;;4192334;28;20346;-60
2023/12/15 01:35:04;;;;;;;7.00;4.77;;;3.30;99.90;;;;;;4194152;28;20736;-60
2023/12/15 01:37:07;;;;;;;9.00;5.60;;;3.30;99.90;;;;;;4190250;28;20303;-61
2023/12/15 01:39:08;;;;;;;11.87;6.30;;;3.30;99.90;;;;;;4193156;28;20258;-60
2023/12/15 01:41:10;;;;;;;7.27;4.77;;;3.30;99.90;;;;;;4191930;28;20343;-61
2023/12/15 01:43:11;;;;;;;6.83;4.70;;;3.20;99.90;;;;;;4193274;28;20269;-60
2023/12/15 01:45:12;;;;;;;9.17;5.50;;;3.20;99.90;;;;;;4192238;28;20273;-60
2023/12/15 01:47:17;;;;;;;8.27;5.27;;;3.20;99.90;;;;;;4192646;28;21054;-61
2023/12/15 01:49:18;;;;;;;9.43;5.90;;;3.30;99.90;;;;;;4191170;28;20262;-60
2023/12/15 01:51:19;;;;;;;10.60;5.90;;;3.20;99.90;;;;;;4191835;28;20265;-60
2023/12/15 01:53:21;;;;;;;8.60;5.23;;;3.30;99.90;;;;;;4192200;28;20269;-60
2023/12/15 01:55:22;;;;;;;7.77;4.80;;;3.20;99.90;;;;;;4191510;28;20671;-61
2023/12/15 01:57:23;;;;;;;6.97;5.23;;;3.20;99.90;;;;;;4192720;28;20254;-60
2023/12/15 01:59:24;;;;;;;8.53;5.23;;;3.20;99.90;;;;;;4190673;28;20319;-61
2023/12/15 02:01:26;;;;;;;7.87;5.20;;;3.20;99.90;;;;;;4192397;28;20327;-61
2023/12/15 02:03:27;;;;;;;6.97;4.23;;;3.20;99.90;;;;;;4190493;28;20725;-61
2023/12/15 02:05:28;;;;;;;5.83;4.03;;;3.20;99.90;;;;;;4193644;28;20323;-59
2023/12/15 02:07:29;;;;;;;6.03;4.30;;;3.20;99.90;;;;;;4190641;28;20273;-62
2023/12/15 02:09:31;;;;;;;6.40;4.43;;;3.20;99.90;;;;;;4192576;28;20326;-60
2023/12/15 02:11:32;;;;;;;6.80;5.07;;;3.20;99.90;;;;;;4190835;28;20414;-60
2023/12/15 02:13:33;;;;;;;6.93;4.00;;;3.10;99.90;;;;;;4192207;28;20285;-59
2023/12/15 02:15:34;;;;;;;5.80;3.73;;;3.10;99.90;;;;;;4191755;28;20289;-60
2023/12/15 02:17:36;;;;;;;5.30;3.73;;;3.10;99.90;;;;;;4192112;28;20327;-60
2023/12/15 02:19:37;;;;;;;5.93;3.97;;;3.00;99.90;;;;;;4192045;28;20728;-61
2023/12/15 02:21:38;;;;;;;6.90;4.47;;;3.00;99.90;;;;;;4191664;28;20305;-61
2023/12/15 02:23:39;;;;;;;6.97;4.27;;;3.00;99.90;;;;;;4192284;28;20315;-61
2023/12/15 02:25:41;;;;;;;6.90;4.50;;;3.00;99.90;;;;;;4191582;28;20350;-61
2023/12/15 02:27:42;;;;;;;6.70;4.40;;;2.90;99.90;;;;;;4192762;28;20274;-61
2023/12/15 02:29:43;;;;;;;4.87;3.70;;;2.90;99.90;;;;;;4191180;28;20350;-62
2023/12/15 02:31:44;;;;;;;6.27;4.13;;;2.90;99.90;;;;;;4192947;28;20734;-61
2023/12/15 02:33:45;;;;;;;6.23;3.73;;;2.90;99.90;;;;;;4190231;28;20277;-62
2023/12/15 02:35:48;;;;;;;8.63;6.03;;;2.80;99.90;;;;;;4193697;28;20311;-61
2023/12/15 02:37:49;;;;;;;9.37;6.90;;;2.80;99.90;;;;;;4191000;28;20277;-60
2023/12/15 02:39:50;;;;;;;6.37;4.13;;;2.80;99.90;;;;;;4192137;28;20273;-60
2023/12/15 02:41:51;;;;;;;9.47;5.87;;;2.80;99.90;;;;;;4190620;28;20301;-61
2023/12/15 02:43:52;;;;;;;10.00;5.87;;;2.70;99.90;;;;;;4192576;28;20270;-62
2023/12/15 02:45:54;;;;;;;13.67;6.57;;;2.70;99.90;;;;;;4190833;28;20584;-61
2023/12/15 02:47:55;;;;;;;16.93;7.13;;;2.70;99.90;;;;;;4192881;28;20261;-61
2023/12/15 02:49:56;;;;;;;18.37;7.73;;;2.60;99.90;;;;;;4193435;28;20306;-61
2023/12/15 02:51:57;;;;;;;17.10;9.20;;;2.60;99.90;;;;;;4194768;28;20315;-61
2023/12/15 02:54:00;;;;;;;16.53;10.77;;;2.50;99.90;;;;;;4194990;28;20261;-62
2023/12/15 02:56:01;;;;;;;15.53;10.37;;;2.50;99.90;;;;;;4194748;28;20307;-58
2023/12/15 02:58:02;;;;;;;13.90;8.87;;;2.50;99.90;;;;;;4194918;28;20241;-60
2023/12/15 03:00:04;;;;;;;15.60;9.33;;;2.50;99.90;;;;;;4194267;28;20265;-61
2023/12/15 03:02:05;;;;;;;13.60;9.00;;;2.40;99.90;;;;;;4194202;28;20289;-61
2023/12/15 03:04:06;;;;;;;12.57;8.10;;;2.30;99.90;;;;;;4193428;28;20680;-60
2023/12/15 03:06:08;;;;;;;12.30;8.47;;;2.30;99.90;;;;;;4177457;28;20690;-61
2023/12/15 03:08:09;;;;;;;12.40;8.60;;;2.20;99.90;;;;;;4194177;28;20273;-61
2023/12/15 03:10:10;;;;;;;11.47;8.00;;;2.20;99.90;;;;;;4195625;28;20391;-61
2023/12/15 03:12:11;;;;;;;16.33;8.20;;;2.10;99.90;;;;;;4194264;28;20348;-61
2023/12/15 03:14:12;;;;;;;13.60;8.00;;;2.00;99.90;;;;;;4178749;28;21082;-60
2023/12/15 03:16:14;;;;;;;13.30;8.50;;;2.00;99.90;;;;;;4177109;28;20692;-60
2023/12/15 03:18:15;;;;;;;17.77;9.70;;;2.00;99.90;;;;;;4180730;28;20799;-61
2023/12/15 03:20:16;;;;;;;14.77;8.87;;;1.90;99.90;;;;;;4193298;28;20273;-61
2023/12/15 03:22:17;;;;;;;13.73;9.03;;;1.90;99.90;;;;;;4194169;28;20354;-61
2023/12/15 03:24:19;;;;;;;15.00;8.40;;;1.90;99.90;;;;;;4194484;28;20246;-59
2023/12/15 03:26:20;;;;;;;13.27;9.00;;;1.90;99.90;;;;;;4193419;28;20269;-60
2023/12/15 03:28:21;;;;;;;13.67;8.20;;;1.90;99.90;;;;;;4193617;28;20696;-62
2023/12/15 03:30:22;;;;;;;13.43;9.13;;;1.90;99.90;;;;;;4193540;28;20273;-61
2023/12/15 03:32:23;;;;;;;14.43;9.63;;;1.90;99.90;;;;;;4195456;28;20306;-60
2023/12/15 03:34:24;;;;;;;13.57;8.97;;;1.80;99.90;;;;;;4193476;28;20899;-61
2023/12/15 03:36:26;;;;;;;13.73;9.53;;;1.80;99.90;;;;;;4194260;28;20814;-60
2023/12/15 03:38:27;;;;;;;16.00;10.67;;;1.80;99.90;;;;;;4194222;28;20295;-61
2023/12/15 03:40:28;;;;;;;10.63;7.57;;;1.80;99.90;;;;;;4194775;28;20269;-60
2023/12/15 03:42:30;;;;;;;16.33;10.10;;;1.70;99.90;;;;;;4193710;28;20430;-61
2023/12/15 03:44:31;;;;;;;13.00;8.83;;;1.70;99.90;;;;;;4194282;28;20346;-59
2023/12/15 03:46:33;;;;;;;16.10;11.37;;;1.60;99.90;;;;;;4192571;28;20765;-61
2023/12/15 03:48:34;;;;;;;14.93;9.50;;;1.60;99.90;;;;;;4193585;28;20270;-61
2023/12/15 03:50:35;;;;;;;14.87;10.40;;;1.60;99.90;;;;;;4193796;28;20675;-61
2023/12/15 03:52:36;;;;;;;15.77;10.40;;;1.50;99.90;;;;;;4194141;28;20327;-60
2023/12/15 03:54:37;;;;;;;14.53;8.63;;;1.60;99.90;;;;;;4193812;28;20269;-61
2023/12/15 03:56:39;;;;;;;13.00;7.60;;;1.50;99.90;;;;;;4193105;28;20269;-61
2023/12/15 03:58:40;;;;;;;11.80;6.97;;;1.50;99.90;;;;;;4193531;28;20311;-60
2023/12/15 04:00:41;;;;;;;14.20;6.67;;;1.50;99.90;;;;;;4192908;28;20265;-60
2023/12/15 04:02:43;;;;;;;12.07;6.47;;;1.50;99.90;;;;;;4194040;28;20644;-60
2023/12/15 04:04:44;;;;;;;18.93;6.73;;;1.50;99.90;;;;;;4193657;28;20315;-60
2023/12/15 04:06:45;;;;;;;13.27;7.47;;;1.50;99.90;;;;;;4192385;28;20351;-61
2023/12/15 04:08:47;;;;;;;11.23;6.30;;;1.40;99.90;;;;;;4192552;28;20281;-60
2023/12/15 04:10:48;;;;;;;14.33;6.73;;;1.40;99.90;;;;;;4193077;28;20855;-61
2023/12/15 04:12:49;;;;;;;9.17;6.40;;;1.40;99.90;;;;;;4192026;28;20663;-60
2023/12/15 04:14:50;;;;;;;13.53;6.27;;;1.40;99.90;;;;;;4194914;28;20269;-61
2023/12/15 04:16:52;;;;;;;11.70;6.00;;;1.40;99.90;;;;;;4192508;28;20323;-60
2023/12/15 04:18:53;;;;;;;10.60;5.97;;;1.40;99.90;;;;;;4193895;28;20687;-61
2023/12/15 04:20:54;;;;;;;11.40;5.57;;;1.40;99.90;;;;;;4193060;28;20345;-60
2023/12/15 04:22:56;;;;;;;11.57;6.10;;;1.40;99.90;;;;;;4194255;28;20315;-61
2023/12/15 04:24:57;;;;;;;9.07;5.50;;;1.40;99.90;;;;;;4192618;28;20295;-56
2023/12/15 04:26:58;;;;;;;12.33;6.37;;;1.30;99.90;;;;;;4192816;28;20304;-60
2023/12/15 04:28:59;;;;;;;12.27;6.07;;;1.30;99.90;;;;;;4192825;28;20744;-60
2023/12/15 04:31:16;;;;;;;11.10;5.73;;;1.30;99.90;;;;;;4191893;28;20319;-60
2023/12/15 04:33:17;;;;;;;8.80;5.60;;;1.30;99.90;;;;;;4192617;28;20297;-60
2023/12/15 04:35:19;;;;;;;9.63;6.13;;;1.30;99.90;;;;;;4192036;28;20315;-60
2023/12/15 04:37:20;;;;;;;11.03;6.57;;;1.20;99.90;;;;;;4193237;28;20277;-58
2023/12/15 04:39:21;;;;;;;12.50;6.53;;;1.20;99.90;;;;;;4191161;28;20277;-60
2023/12/15 04:41:24;;;;;;;13.43;7.40;;;1.20;99.90;;;;;;4193579;28;20375;-59
2023/12/15 04:43:25;;;;;;;9.90;6.20;;;1.10;99.90;;;;;;4191476;28;20291;-60
2023/12/15 04:45:26;;;;;;;14.33;8.00;;;1.10;99.90;;;;;;4193290;28;20273;-60
2023/12/15 04:47:27;;;;;;;12.67;6.43;;;1.10;99.90;;;;;;4175092;28;20265;-60
2023/12/15 04:49:28;;;;;;;13.50;7.63;;;1.10;99.90;;;;;;4193124;28;20757;-60
2023/12/15 04:51:29;;;;;;;10.47;6.70;;;1.10;99.90;;;;;;4192450;28;20620;-60
2023/12/15 04:53:30;;;;;;;11.93;6.13;;;1.10;99.90;;;;;;4193132;28;20327;-60
2023/12/15 04:55:32;;;;;;;14.70;7.63;;;1.10;99.90;;;;;;4192061;28;20277;-61
2023/12/15 04:57:33;;;;;;;10.27;6.23;;;1.20;99.90;;;;;;4190767;28;20269;-61
2023/12/15 04:59:39;;;;;;;12.93;6.73;;;1.20;99.90;;;;;;4188115;28;20323;-61
2023/12/15 05:01:42;;;;;;;10.17;6.47;;;1.20;99.90;;;;;;4192237;28;20319;-61
2023/12/15 05:03:44;;;;;;;10.27;6.13;;;1.20;99.90;;;;;;4192512;28;20277;-60
2023/12/15 05:05:47;;;;;;;10.77;6.03;;;1.20;99.90;;;;;;4191397;28;20281;-57
2023/12/15 05:07:48;;;;;;;8.53;5.43;;;1.20;99.90;;;;;;4193485;28;20281;-61
2023/12/15 05:09:50;;;;;;;9.47;5.97;;;1.20;99.90;;;;;;4190672;28;20273;-60
2023/12/15 05:11:51;;;;;;;11.70;6.67;;;1.20;99.90;;;;;;4192212;28;20300;-58
2023/12/15 05:13:52;;;;;;;19.80;9.33;;;1.20;99.90;;;;;;4191356;28;20269;-61
2023/12/15 05:15:54;;;;;;;15.40;7.83;;;1.20;99.90;;;;;;4175684;28;20847;-59
2023/12/15 05:17:55;;;;;;;18.70;8.03;;;1.30;99.90;;;;;;4191898;28;20281;-58
2023/12/15 05:19:57;;;;;;;12.57;6.93;;;1.30;99.90;;;;;;4193382;28;20334;-61
2023/12/15 05:21:58;;;;;;;15.87;8.67;;;1.30;99.90;;;;;;4191176;28;20297;-61
2023/12/15 05:23:59;;;;;;;12.47;7.27;;;1.40;99.90;;;;;;4193481;28;20300;-60
2023/12/15 05:26:00;;;;;;;11.30;6.77;;;1.40;99.90;;;;;;4191895;28;20265;-61
2023/12/15 05:28:01;;;;;;;14.83;7.50;;;1.40;99.90;;;;;;4192111;28;20342;-61
2023/12/15 05:30:03;;;;;;;12.07;7.40;;;1.50;99.90;;;;;;4190825;28;20261;-62
2023/12/15 05:32:04;;;;;;;8.97;6.23;;;1.40;99.90;;;;;;4191940;28;20261;-61
2023/12/15 05:34:06;;;;;;;13.90;7.00;;;1.40;99.90;;;;;;4192104;28;20261;-60
2023/12/15 05:36:07;;;;;;;12.13;7.17;;;1.30;99.90;;;;;;4191067;28;20327;-60
2023/12/15 05:38:08;;;;;;;12.03;6.97;;;1.30;99.90;;;;;;4191532;28;20315;-59
2023/12/15 05:40:12;;;;;;;10.73;6.00;;;1.30;99.90;;;;;;4190894;28;20250;-61
2023/12/15 05:42:13;;;;;;;10.37;5.97;;;1.20;99.90;;;;;;4192452;28;20663;-58
2023/12/15 05:44:14;;;;;;;11.67;6.37;;;1.20;99.90;;;;;;4191936;28;20250;-59
2023/12/15 05:46:15;;;;;;;14.57;6.37;;;1.10;99.90;;;;;;4193242;28;20270;-57
2023/12/15 05:48:16;;;;;;;12.10;6.70;;;1.10;99.90;;;;;;4191231;28;20319;-59
2023/12/15 05:50:17;;;;;;;13.80;7.43;;;1.10;99.90;;;;;;4192377;28;20335;-59
2023/12/15 05:52:19;;;;;;;12.83;7.03;;;1.10;99.90;;;;;;4191828;28;20327;-56
2023/12/15 05:54:20;;;;;;;13.17;7.67;;;1.00;99.90;;;;;;4193074;28;20266;-55
2023/12/15 05:56:21;;;;;;;13.00;8.30;;;1.10;99.90;;;;;;4173262;28;20351;-59
2023/12/15 05:58:22;;;;;;;14.97;7.70;;;1.00;99.90;;;;;;4193166;28;20706;-60
2023/12/15 06:00:23;;;;;;;12.93;7.73;;;1.00;99.90;;;;;;4191871;28;20339;-59
2023/12/15 06:02:24;;;;;;;13.50;7.57;;;1.00;99.90;;;;;;4192429;28;20776;-60
2023/12/15 06:04:25;;;;;;;12.17;7.47;;;1.00;99.90;;;;;;4173756;28;20328;-58
2023/12/15 06:06:26;;;;;;;11.80;7.33;;;1.00;99.90;;;;;;4191643;28;20775;-59
2023/12/15 06:08:28;;;;;;;13.00;7.20;;;1.00;99.90;;;;;;4192941;28;20265;-57
2023/12/15 06:10:29;;;;;;;12.33;7.10;;;1.00;99.90;;;;;;4191875;28;20287;-60
2023/12/15 06:12:30;;;;;;;12.03;7.17;;;1.00;99.90;;;;;;4192356;28;20392;-59
2023/12/15 06:14:31;;;;;;;14.10;7.80;;;1.00;99.90;;;;;;4190679;28;20289;-59
2023/12/15 06:16:32;;;;;;;12.57;7.80;;;1.00;99.90;;;;;;4192947;28;20323;-60
2023/12/15 06:18:33;;;;;;;15.93;8.13;;;1.00;99.90;;;;;;4190334;28;20331;-54
2023/12/15 06:20:34;;;;;;;9.70;7.13;;;1.00;99.90;;;;;;4174546;28;20266;-60
2023/12/15 06:22:35;;;;;;;12.83;7.33;;;1.00;99.90;;;;;;4190372;28;20343;-59
2023/12/15 06:24:37;;;;;;;14.50;7.50;;;1.10;99.90;;;;;;4195772;28;20744;-59
2023/12/15 06:26:38;;;;;;;16.40;9.50;;;1.10;99.90;;;;;;4193768;28;20909;-59
2023/12/15 06:28:39;;;;;;;17.13;9.40;;;1.10;99.90;;;;;;4194953;28;20281;-60
2023/12/15 06:30:40;;;;;;;15.33;9.80;;;1.20;99.90;;;;;;4194886;28;20269;-59
2023/12/15 06:32:42;;;;;;;14.77;10.20;;;1.40;99.90;;;;;;4194634;28;20300;-59
2023/12/15 06:34:43;;;;;;;18.27;10.87;;;1.50;99.90;;;;;;4194802;28;20315;-60
2023/12/15 06:36:44;;;;;;;18.37;9.87;;;1.60;99.90;;;;;;4194404;28;20319;-57
2023/12/15 06:38:45;;;;;;;12.40;8.23;;;1.70;99.90;;;;;;4195661;28;20530;-57
2023/12/15 06:40:46;;;;;;;13.77;8.37;;;1.80;99.90;;;;;;4193733;28;20308;-60
2023/12/15 06:42:48;;;;;;;13.57;8.60;;;1.80;99.90;;;;;;4195135;28;20884;-59
2023/12/15 06:44:49;;;;;;;14.17;8.57;;;1.90;99.90;;;;;;4193433;28;20772;-59
2023/12/15 06:46:50;;;;;;;18.27;9.30;;;2.10;99.90;;;;;;4195018;28;20362;-59
2023/12/15 06:48:51;;;;;;;15.77;9.50;;;2.40;99.90;;;;;;4194560;28;20640;-61
2023/12/15 06:50:52;;;;;;;18.23;10.53;;;2.70;99.90;;;;;;4194909;28;20747;-60
2023/12/15 06:52:53;;;;;;;14.47;9.60;;;3.00;99.90;;;;;;4193750;28;20277;-61
2023/12/15 06:54:54;;;;;;;16.67;9.23;;;3.30;99.90;;;;;;4194536;28;20814;-58
2023/12/15 06:56:55;;;;;;;16.33;9.13;;;3.60;99.90;;;;;;4193280;28;20815;-60
2023/12/15 06:58:56;;;;;;;13.57;8.60;;;3.80;99.90;;;;;;4195171;28;20648;-61
2023/12/15 07:00:58;;;;;;;15.10;9.17;;;4.00;99.90;;;;;;4193381;28;20476;-60
2023/12/15 07:02:59;;;;;;;15.30;9.03;;;4.20;99.90;;;;;;4193750;28;20498;-60
2023/12/15 07:05:00;;;;;;;15.03;10.40;;;4.40;99.90;;;;;;4193631;28;20044;-60
2023/12/15 07:07:01;;;;;;;14.10;9.03;;;4.60;99.90;;;;;;4193796;28;20118;-59
2023/12/15 07:09:02;;;;;;;15.30;8.10;;;4.80;99.90;;;;;;4194580;28;20078;-58
2023/12/15 07:11:03;;;;;;;14.13;8.43;;;5.10;99.90;;;;;;4193501;28;20041;-60
2023/12/15 07:13:05;;;;;;;13.87;7.33;;;5.20;99.90;;;;;;4194491;28;20036;-59
2023/12/15 07:15:07;;;;;;;16.43;8.60;;;5.40;99.90;;;;;;4194045;28;20040;-59
2023/12/15 07:17:08;;;;;;;13.50;8.30;;;5.50;99.90;;;;;;4195477;28;20085;-61
2023/12/15 07:19:09;;;;;;;14.90;9.97;;;5.60;99.90;;;;;;4193126;28;20036;-59
2023/12/15 07:21:11;;;;;;;21.73;11.20;;;5.40;99.90;;;;;;4194632;28;20032;-59
2023/12/15 07:23:12;;;;;;;14.57;9.43;;;5.10;99.90;;;;;;4193800;28;20032;-60
2023/12/15 07:25:13;;;;;;;15.83;9.50;;;4.80;99.90;;;;;;4194502;28;20044;-58
2023/12/15 07:27:14;;;;;;;14.90;7.83;;;4.70;99.90;;;;;;4192916;28;20078;-60
2023/12/15 07:29:15;;;;;;;14.07;8.83;;;4.80;99.90;;;;;;4194590;28;20082;-60
2023/12/15 07:31:16;;;;;;;14.87;8.47;;;5.10;99.90;;;;;;4192656;28;20098;-59
2023/12/15 07:33:17;;;;;;;14.57;8.07;;;5.30;99.90;;;;;;4194071;28;20048;-60
2023/12/15 07:35:20;;;;;;;15.20;8.43;;;5.60;99.90;;;;;;4193355;28;20028;-60
2023/12/15 07:37:21;;;;;;;15.97;9.77;;;5.70;99.90;;;;;;4193059;28;20066;-60
2023/12/15 07:39:22;;;;;;;13.60;8.27;;;5.80;99.90;;;;;;4194665;28;20070;-60
2023/12/15 07:41:23;;;;;;;16.97;9.23;;;5.70;99.90;;;;;;4193825;28;20098;-61
2023/12/15 07:43:24;;;;;;;15.17;9.33;;;5.80;99.90;;;;;;4193640;28;20117;-60
2023/12/15 07:45:25;;;;;;;16.37;9.17;;;6.00;99.90;;;;;;4192509;28;20041;-60
2023/12/15 07:47:28;;;;;;;16.40;9.00;;;6.40;99.90;;;;;;4194934;28;20032;-60
2023/12/15 07:49:34;;;;;;;17.00;10.47;;;6.60;99.90;;;;;;4192742;28;20044;-60
2023/12/15 07:51:35;;;;;;;12.97;8.23;;;6.80;99.90;;;;;;4194249;28;20153;-61
2023/12/15 07:53:36;;;;;;;13.30;7.67;;;6.90;99.90;;;;;;4192505;28;20032;-61
2023/12/15 07:55:37;;;;;;;18.13;9.47;;;7.20;99.90;;;;;;4194076;28;20037;-59
2023/12/15 07:57:39;;;;;;;12.73;7.93;;;7.40;99.90;;;;;;4193130;28;20044;-60
2023/12/15 07:59:40;;;;;;;14.87;8.50;;;7.60;99.90;;;;;;4193291;28;20052;-60
2023/12/15 08:01:47;;;;;;;12.07;7.47;;;7.70;99.90;;;;;;4192527;28;20138;-60
2023/12/15 08:03:50;;;;;;;10.87;7.27;;;7.60;99.90;;;;;;4193712;28;20052;-61
2023/12/15 08:05:51;;;;;;;13.33;8.63;;;7.30;99.90;;;;;;4193546;28;20032;-61
2023/12/15 08:07:52;;;;;;;12.50;7.57;;;7.30;99.90;;;;;;4192778;28;20553;-61
2023/12/15 08:09:53;;;;;;;13.83;9.07;;;7.10;99.90;;;;;;4192901;28;21052;-61
2023/12/15 08:11:54;;;;;;;16.67;8.93;;;6.90;99.90;;;;;;4192552;28;20036;-61
2023/12/15 08:13:55;;;;;;;16.43;10.63;;;6.90;99.90;;;;;;4193138;28;20032;-60
2023/12/15 08:15:56;;;;;;;15.37;10.47;;;6.70;99.90;;;;;;4193271;28;20067;-62
2023/12/15 08:17:57;;;;;;;12.40;8.50;;;7.00;99.90;;;;;;4194508;28;20102;-60
2023/12/15 08:19:59;;;;;;;14.47;9.70;;;6.90;99.90;;;;;;4192332;28;20037;-60
2023/12/15 08:22:00;;;;;;;12.93;8.80;;;6.40;99.90;;;;;;4194509;28;20411;-60
2023/12/15 08:24:01;;;;;;;14.67;8.47;;;6.30;99.90;;;;;;4174643;28;20331;-60
2023/12/15 08:26:02;;;;;;;16.80;8.80;;;6.50;99.90;;;;;;4194372;28;20016;-61
2023/12/15 08:28:03;;;;;;;16.20;8.57;;;6.60;99.90;;;;;;4192927;28;20033;-61
2023/12/15 08:30:07;;;;;;;14.13;8.97;;;6.70;99.90;;;;;;4193608;28;20040;-61
2023/12/15 08:32:08;;;;;;;15.63;8.67;;;7.00;99.90;;;;;;4192886;28;20017;-61
2023/12/15 08:34:09;;;;;;;16.17;8.80;;;6.80;99.90;;;;;;4193965;28;20025;-62
2023/12/15 08:36:10;;;;;;;13.60;8.20;;;6.80;99.90;;;;;;4191916;28;20048;-61
2023/12/15 08:38:12;;;;;;;12.33;7.17;;;6.90;99.90;;;;;;4192405;28;20084;-59
2023/12/15 08:40:13;;;;;;;10.60;7.00;;;6.90;99.90;;;;;;4192315;28;20079;-61
2023/12/15 08:42:14;;;;;;;9.57;6.63;;;7.20;99.90;;;;;;4191985;28;20132;-60
2023/12/15 08:44:15;;;;;;;8.90;5.63;;;7.30;99.90;;;;;;4192368;28;20559;-59
2023/12/15 08:46:16;;;;;;;20.33;10.93;;;7.30;99.90;;;;;;4192287;28;20033;-60
2023/12/15 08:48:17;;;;;;;10.73;6.47;;;7.10;99.90;;;;;;4193267;28;20024;-59
2023/12/15 08:50:18;;;;;;;11.37;6.10;;;7.40;99.90;;;;;;4191411;28;20090;-60
2023/12/15 08:52:19;;;;;;;12.57;7.47;;;7.50;99.90;;;;;;4193155;28;20052;-60
2023/12/15 08:54:20;;;;;;;15.47;7.67;;;7.30;99.90;;;;;;4191600;28;20037;-60
2023/12/15 08:56:21;;;;;;;16.50;6.93;;;7.40;99.90;;;;;;4192503;28;20396;-60
2023/12/15 08:58:23;;;;;;;11.37;6.80;;;7.30;99.90;;;;;;4191376;28;20660;-60
2023/12/15 09:00:24;;;;;;;10.53;7.00;;;7.40;99.90;;;;;;4192760;28;20082;-60
2023/12/15 09:02:26;;;;;;;14.80;8.33;;;7.40;99.90;;;;;;4191332;28;20037;-59
2023/12/15 09:04:27;;;;;;;13.20;7.67;;;7.20;99.90;;;;;;4192458;28;20105;-60
2023/12/15 09:06:28;;;;;;;13.93;8.13;;;7.00;99.90;;;;;;4191598;28;20086;-61
2023/12/15 09:08:29;;;;;;;13.77;7.63;;;6.80;99.90;;;;;;4192277;28;20185;-60
2023/12/15 09:10:35;;;;;;;15.73;8.10;;;6.80;99.90;;;;;;4191646;28;20507;-60
2023/12/15 09:12:36;;;;;;;14.30;8.23;;;7.10;99.90;;;;;;4192295;28;20078;-60
2023/12/15 09:14:38;;;;;;;14.07;8.30;;;7.10;99.90;;;;;;4192999;28;20029;-60
2023/12/15 09:16:39;;;;;;;15.77;8.00;;;7.10;99.90;;;;;;4192035;28;20016;-60
2023/12/15 09:18:40;;;;;;;13.57;7.13;;;7.30;99.90;;;;;;4192258;28;20109;-60
2023/12/15 09:20:42;;;;;;;17.13;8.30;;;7.30;99.90;;;;;;4191986;28;20024;-60
2023/12/15 09:22:45;;;;;;;15.10;7.47;;;7.20;99.90;;;;;;4193403;28;20082;-60
2023/12/15 09:24:46;;;;;;;19.70;8.50;;;6.60;99.90;;;;;;4191041;28;20086;-59
2023/12/15 09:26:48;;;;;;;16.07;8.60;;;6.20;99.90;;;;;;4193249;28;20024;-58
2023/12/15 09:28:49;;;;;;;14.27;8.23;;;6.00;99.90;;;;;;4191729;28;20021;-58
2023/12/15 09:30:50;;;;;;;23.00;8.63;;;5.80;99.90;;;;;;4192058;28;20085;-58
2023/12/15 09:32:51;;;;;;;15.07;8.57;;;6.10;99.90;;;;;;4190932;28;20045;-60
2023/12/15 09:34:52;;;;;;;19.27;8.83;;;6.20;99.90;;;;;;4193156;28;20040;-60
2023/12/15 09:36:53;;;;;;;15.77;8.00;;;6.30;99.90;;;;;;4191114;28;20041;-59
2023/12/15 09:38:54;;;;;;;14.87;6.60;;;6.40;99.90;;;;;;4191792;28;20036;-60
2023/12/15 09:40:56;;;;;;;9.80;5.40;;;6.60;99.90;;;;;;4192155;28;20439;-61
2023/12/15 09:42:57;;;;;;;8.30;3.40;;;6.70;99.90;;;;;;4191299;28;20040;-62
2023/12/15 09:44:58;;;;;;;5.60;2.30;;;6.30;99.90;;;;;;4191936;28;20128;-60
2023/12/15 09:46:59;;;;;;;8.80;3.33;;;6.10;99.90;;;;;;4190814;28;20036;-60
2023/12/15 09:49:02;;;;;;;12.40;3.47;;;6.00;99.90;;;;;;4192104;28;20032;-60
2023/12/15 09:51:08;;;;;;;5.43;3.87;;;5.80;99.90;;;;;;4191664;28;20460;-60
2023/12/15 09:53:10;;;;;;;10.30;4.77;;;5.80;99.90;;;;;;4192278;28;20471;-60
2023/12/15 09:55:11;;;;;;;8.33;2.67;;;5.80;99.90;;;;;;4190907;28;20032;-60
2023/12/15 09:57:13;;;;;;;5.43;2.20;;;5.80;99.90;;;;;;4192071;28;20044;-61
2023/12/15 09:59:14;;;;;;;5.47;2.77;;;5.70;99.90;;;;;;4191218;28;20122;-61
2023/12/15 10:01:15;;;;;;;3.87;2.70;;;5.60;99.90;;;;;;4191822;28;20079;-61
2023/12/15 10:03:16;;;;;;;5.07;2.67;;;5.50;99.90;;;;;;4191557;28;20107;-62
2023/12/15 10:05:18;;;;;;;5.97;2.60;;;5.40;99.90;;;;;;4191807;28;20044;-60
2023/12/15 10:07:19;;;;;;;6.00;2.87;;;5.40;99.90;;;;;;4190513;28;20511;-60
2023/12/15 10:09:21;;;;;;;7.97;2.90;;;5.50;99.90;;;;;;4192083;28;20177;-61
2023/12/15 10:11:22;;;;;;;4.67;2.03;;;5.50;99.90;;;;;;4190862;28;20098;-61
2023/12/15 10:13:23;;;;;;;4.47;2.27;;;5.60;99.90;;;;;;4191293;28;20109;-60
2023/12/15 10:15:24;;;;;;;2.93;1.97;;;5.60;99.90;;;;;;4192053;28;20075;-61
2023/12/15 10:17:26;;;;;;;4.97;2.47;;;5.70;99.90;;;;;;4190698;28;20040;-61
2023/12/15 10:19:27;;;;;;;5.70;2.50;;;5.80;99.90;;;;;;4191503;28;20028;-60
2023/12/15 10:21:33;;;;;;;7.43;3.00;;;5.90;99.90;;;;;;4172894;28;20107;-60
2023/12/15 10:23:34;;;;;;;3.37;1.80;;;6.10;99.90;;;;;;4192015;28;20036;-61
2023/12/15 10:25:36;;;;;;;6.17;2.30;;;6.20;99.90;;;;;;4190687;28;20040;-61
2023/12/15 10:27:37;;;;;;;4.73;2.43;;;6.20;99.90;;;;;;4192680;28;20090;-61
2023/12/15 10:29:38;;;;;;;5.37;1.80;;;6.30;99.90;;;;;;4190693;28;20116;-61
2023/12/15 10:31:41;;;;;;;7.03;2.60;;;6.40;99.90;;;;;;4192912;28;20684;-60
2023/12/15 10:33:43;;;;;;;5.63;2.63;;;6.40;99.90;;;;;;4191174;28;20033;-61
2023/12/15 10:35:48;;;;;;;6.83;2.93;;;6.40;99.90;;;;;;4192006;28;20504;-61